Time;durP1;ratioP1;P1;durP2;ratioP2;P2;SDS_P1;SDS_P2;PMS_P1;PMS_P2;Temp;Humidity;BMP_temperature;BMP_pressure;BME280_temperature;BME280_humidity;BME280_pressure;Samples;Min_cycle;Max_cycle;Signal;HPM_P1;HPM_P2
2024/01/18 00:02:04;;;;;;;66.22;40.50;;;;;;;4.85;77.65;97921.59;4264103;33;20561;-90
2024/01/18 00:04:34;;;;;;;69.60;41.50;;;;;;;4.53;79.12;97921.44;4247498;33;20160;-90
2024/01/18 00:07:03;;;;;;;60.47;39.67;;;;;;;5.00;77.55;97909.09;4260270;33;20287;-90
2024/01/18 00:09:32;;;;;;;58.35;38.50;;;;;;;5.16;76.49;97904.28;4260465;33;20145;-90
2024/01/18 00:12:06;;;;;;;63.38;40.00;;;;;;;5.07;76.47;97905.03;4260357;33;20156;-90
2024/01/18 00:14:37;;;;;;;66.95;37.65;;;;;;;4.67;77.66;97898.47;4260546;33;20172;-90
2024/01/18 00:17:07;;;;;;;53.65;38.47;;;;;;;4.92;76.42;97899.19;4261251;33;20140;-90
2024/01/18 00:19:36;;;;;;;58.05;37.35;;;;;;;4.94;76.65;97894.62;4260364;33;20145;-91
2024/01/18 00:22:09;;;;;;;59.95;36.95;;;;;;;4.67;77.39;97889.72;4260439;33;20181;-90
2024/01/18 00:24:38;;;;;;;59.63;36.83;;;;;;;4.75;77.95;97889.13;4260622;33;20478;-90
2024/01/18 00:27:10;;;;;;;;;;;;;;;4.92;77.20;97886.06;4261406;33;20195;-90
2024/01/18 00:29:41;;;;;;;59.60;37.13;;;;;;;4.80;78.17;97887.00;4274510;33;20023;-90
2024/01/18 00:32:12;;;;;;;62.75;37.90;;;;;;;4.94;77.59;97889.37;4263818;33;20545;-91
2024/01/18 00:34:41;;;;;;;69.80;38.47;;;;;;;5.09;77.70;97893.44;4260389;33;20172;-91
2024/01/18 00:37:10;;;;;;;61.37;36.28;;;;;;;5.33;76.79;97882.75;4260247;33;20540;-91
2024/01/18 00:39:41;;;;;;;66.85;36.67;;;;;;;5.36;76.43;97892.22;4260100;33;20433;-90
2024/01/18 00:42:10;;;;;;;53.20;33.90;;;;;;;5.40;75.95;97886.56;4260186;33;20176;-90
2024/01/18 00:44:41;;;;;;;63.15;38.65;;;;;;;5.54;75.78;97879.38;4260313;33;20160;-91
2024/01/18 00:47:10;;;;;;;50.17;36.72;;;;;;;5.31;76.32;97887.31;4260353;33;20426;-90
2024/01/18 00:49:40;;;;;;;55.22;35.58;;;;;;;5.32;76.20;97893.41;4260108;33;20165;-91
2024/01/18 00:52:09;;;;;;;55.70;34.45;;;;;;;5.51;75.63;97883.09;4260059;33;20184;-91
2024/01/18 00:54:38;;;;;;;52.62;33.58;;;;;;;5.48;75.56;97874.63;4260298;33;20589;-91
2024/01/18 00:57:08;;;;;;;53.70;34.92;;;;;;;5.29;76.37;97873.47;4247438;33;20164;-90
2024/01/18 00:59:37;;;;;;;57.92;34.97;;;;;;;5.11;76.75;97877.56;4274075;33;20187;-91
2024/01/18 01:02:08;;;;;;;60.63;38.03;;;;;;;5.25;76.73;97866.78;4264875;33;20136;-90
2024/01/18 01:04:40;;;;;;;56.53;34.45;;;;;;;5.57;75.60;97868.63;4259736;33;20180;-90
2024/01/18 01:07:09;;;;;;;52.50;33.25;;;;;;;5.72;75.22;97861.28;4249078;33;20605;-90
2024/01/18 01:09:38;;;;;;;55.03;34.72;;;;;;;5.72;75.41;97848.16;4245840;33;20188;-91
2024/01/18 01:12:08;;;;;;;52.25;33.95;;;;;;;5.71;75.46;97843.87;4246034;33;20168;-90
2024/01/18 01:14:39;;;;;;;48.05;32.92;;;;;;;5.66;75.45;97850.34;4245705;33;20153;-91
2024/01/18 01:17:09;;;;;;;52.95;34.25;;;;;;;5.29;77.51;97839.34;4255691;33;20466;-90
2024/01/18 01:19:38;;;;;;;52.53;34.10;;;;;;;5.58;76.80;97834.38;4259777;33;20152;-91
2024/01/18 01:22:08;;;;;;;48.80;32.03;;;;;;;5.77;76.05;97844.16;4259836;33;20177;-90
2024/01/18 01:24:38;;;;;;;51.08;32.22;;;;;;;5.54;77.19;97848.69;4260016;33;20144;-91
2024/01/18 01:27:11;;;;;;;43.97;31.17;;;;;;;5.72;76.13;97837.63;4260853;33;20195;-91
2024/01/18 01:29:41;;;;;;;49.90;34.35;;;;;;;5.84;75.96;97832.19;4274183;33;20187;-90
2024/01/18 01:32:12;;;;;;;58.40;36.05;;;;;;;5.82;75.60;97814.88;4264763;33;20473;-91
2024/01/18 01:34:42;;;;;;;50.60;35.53;;;;;;;5.84;75.35;97818.22;4259886;33;20179;-91
2024/01/18 01:37:13;;;;;;;49.75;32.60;;;;;;;6.01;74.58;97811.59;4259797;33;20195;-91
2024/01/18 01:39:43;;;;;;;54.40;34.15;;;;;;;6.14;74.21;97814.88;4259917;33;20180;-91
2024/01/18 01:42:14;;;;;;;54.55;33.03;;;;;;;5.67;75.63;97812.59;4259939;33;20443;-91
2024/01/18 01:44:43;;;;;;;54.70;34.30;;;;;;;5.57;76.15;97805.56;4259886;33;20148;-91
2024/01/18 01:47:14;;;;;;;45.08;32.22;;;;;;;5.76;75.96;97803.09;4259992;33;20160;-91
2024/01/18 01:49:43;;;;;;;43.47;31.10;;;;;;;5.91;75.50;97790.47;4259668;33;20171;-90
2024/01/18 01:52:24;;;;;;;47.38;32.53;;;;;;;5.79;75.78;97789.72;4259696;33;20168;-91
2024/01/18 01:54:53;;;;;;;46.45;30.55;;;;;;;5.75;76.60;97785.66;4259818;33;20172;-91
2024/01/18 01:57:25;;;;;;;55.30;36.35;;;;;;;6.01;75.31;97778.25;4259550;33;20543;-91
2024/01/18 02:00:03;;;;;;;48.33;32.60;;;;;;;5.95;75.69;97770.06;4259798;33;20438;-91
2024/01/18 02:02:44;;;;;;;48.25;32.45;;;;;;;5.71;76.88;97765.03;4258921;33;20175;-91
2024/01/18 02:05:14;;;;;;;51.22;33.47;;;;;;;5.76;76.85;97765.47;4260046;33;20526;-91
2024/01/18 02:07:45;;;;;;;45.10;31.52;;;;;;;5.85;76.44;97769.94;4245647;33;20153;-91
2024/01/18 02:10:15;;;;;;;46.70;30.73;;;;;;;5.95;76.55;97763.00;4245715;33;20422;-91
2024/01/18 02:12:45;;;;;;;47.08;31.95;;;;;;;6.04;76.43;97766.66;4245657;33;20176;-91
2024/01/18 02:15:14;;;;;;;48.38;34.22;;;;;;;5.91;76.68;97753.69;4245595;33;20156;-91
2024/01/18 02:17:45;;;;;;;51.13;32.55;;;;;;;5.96;76.54;97746.25;4257274;33;20163;-91
2024/01/18 02:20:15;;;;;;;49.30;31.77;;;;;;;5.89;76.76;97745.91;4260148;33;20165;-91
2024/01/18 02:22:50;;;;;;;53.20;31.30;;;;;;;6.05;76.36;97744.66;4259799;33;20157;-91
2024/01/18 02:25:27;;;;;;;46.17;31.52;;;;;;;5.83;77.31;97748.25;4259585;33;20179;-91
2024/01/18 02:27:57;;;;;;;46.05;30.98;;;;;;;5.75;78.02;97734.91;4264973;33;20151;-91
2024/01/18 02:30:27;;;;;;;46.78;29.02;;;;;;;5.93;77.43;97730.75;4273808;33;20164;-91
2024/01/18 02:33:04;;;;;;;49.50;32.45;;;;;;;5.61;79.27;97734.25;4260210;33;20156;-91
2024/01/18 02:35:37;;;;;;;;;;;;;;;5.50;80.09;97722.97;4260100;33;20183;-91
2024/01/18 02:38:07;;;;;;;41.60;30.70;;;;;;;5.89;77.96;97724.88;4259967;33;20036;-91
2024/01/18 02:40:37;;;;;;;44.83;31.00;;;;;;;5.80;78.26;97722.22;4259578;33;20168;-91
2024/01/18 02:43:14;;;;;;;42.70;29.55;;;;;;;5.99;77.87;97722.34;4259736;33;20165;-91
2024/01/18 02:45:43;;;;;;;47.05;32.30;;;;;;;6.07;77.19;97719.91;4259420;33;20426;-91
2024/01/18 02:48:14;;;;;;;45.88;31.87;;;;;;;5.98;77.45;97719.84;4259425;33;20171;-91
2024/01/18 02:50:44;;;;;;;41.45;30.02;;;;;;;6.41;76.04;97719.59;4259337;33;20181;-91
2024/01/18 02:53:13;;;;;;;44.22;28.60;;;;;;;6.51;75.42;97717.84;4259660;33;20149;-91
2024/01/18 02:55:45;;;;;;;42.95;30.50;;;;;;;6.36;75.64;97724.44;4259208;33;20176;-91
2024/01/18 02:58:14;;;;;;;43.78;29.17;;;;;;;6.26;76.31;97713.06;4259010;33;20164;-91
2024/01/18 03:00:43;;;;;;;43.83;30.73;;;;;;;6.20;76.70;97714.41;4259037;33;20159;-91
2024/01/18 03:03:14;;;;;;;40.17;29.80;;;;;;;5.89;78.13;97713.53;4259253;33;20156;-91
2024/01/18 03:05:45;;;;;;;42.60;30.10;;;;;;;6.40;76.54;97724.03;4258984;33;20226;-91
2024/01/18 03:08:14;;;;;;;39.33;29.70;;;;;;;6.30;77.00;97719.72;4259473;33;20160;-91
2024/01/18 03:10:47;;;;;;;45.12;29.83;;;;;;;6.57;76.30;97725.22;4258922;33;20180;-91
2024/01/18 03:13:16;;;;;;;41.05;29.08;;;;;;;6.57;76.13;97725.22;4259183;33;20530;-91
2024/01/18 03:15:45;;;;;;;41.78;27.73;;;;;;;6.55;76.18;97726.31;4260964;33;20164;-91
2024/01/18 03:18:14;;;;;;;38.15;28.95;;;;;;;6.66;75.56;97710.41;4260817;33;20546;-91
2024/01/18 03:20:43;;;;;;;37.50;26.73;;;;;;;6.63;75.86;97718.56;4260897;33;20148;-91
2024/01/18 03:23:14;;;;;;;40.95;28.65;;;;;;;6.56;75.93;97710.38;4261452;33;20179;-91
2024/01/18 03:25:43;;;;;;;42.55;30.05;;;;;;;6.68;75.41;97715.53;4260989;33;20432;-91
2024/01/18 03:28:14;;;;;;;38.60;27.65;;;;;;;6.83;74.92;97714.19;4267530;33;20175;-91
2024/01/18 03:30:43;;;;;;;36.95;28.40;;;;;;;6.84;75.27;97705.31;4275064;33;20180;-90
2024/01/18 03:33:12;;;;;;;39.58;28.50;;;;;;;6.45;76.96;97709.66;4261951;33;20144;-91
2024/01/18 03:35:42;;;;;;;38.40;28.67;;;;;;;6.83;75.48;97695.75;4260487;33;20529;-91
2024/01/18 03:38:11;;;;;;;40.17;29.92;;;;;;;6.88;75.47;97691.72;4261094;33;20169;-91
2024/01/18 03:40:40;;;;;;;40.03;27.52;;;;;;;6.78;75.89;97690.06;4260744;33;20800;-91
2024/01/18 03:43:09;;;;;;;40.90;30.73;;;;;;;6.82;75.92;97696.72;4259524;33;20153;-91
2024/01/18 03:45:43;;;;;;;32.55;26.92;;;;;;;6.77;75.90;97697.16;4260732;33;20156;-91
2024/01/18 03:48:15;;;;;;;41.03;28.87;;;;;;;6.79;75.90;97705.72;4260749;33;20184;-91
2024/01/18 03:50:45;;;;;;;44.75;29.85;;;;;;;6.55;77.00;97700.81;4260916;33;20219;-91
2024/01/18 03:53:13;;;;;;;38.78;28.75;;;;;;;6.78;76.23;97711.12;4261141;33;20133;-91
2024/01/18 03:55:42;;;;;;;34.65;27.17;;;;;;;7.15;74.86;97703.41;4247559;33;20175;-91
2024/01/18 03:58:12;;;;;;;38.55;28.80;;;;;;;6.94;75.29;97700.91;4260684;33;20164;-92
2024/01/18 04:00:43;;;;;;;44.08;33.25;;;;;;;6.79;75.75;97697.81;4260620;33;20470;-92
2024/01/18 04:03:13;;;;;;;44.20;33.63;;;;;;;7.10;74.70;97698.56;4260652;33;20160;-92
2024/01/18 04:05:43;;;;;;;41.03;30.67;;;;;;;7.10;74.58;97692.44;4260601;33;20439;-92
2024/01/18 04:08:11;;;;;;;38.42;32.13;;;;;;;7.28;74.33;97695.22;4260981;33;20176;-91
2024/01/18 04:10:41;;;;;;;39.20;30.55;;;;;;;7.08;74.91;97691.75;4260700;33;20148;-91
2024/01/18 04:13:10;;;;;;;45.92;33.45;;;;;;;7.51;73.47;97683.41;4260884;33;20172;-92
2024/01/18 04:15:40;;;;;;;39.13;30.00;;;;;;;7.01;75.01;97683.59;4260638;33;20157;-92
2024/01/18 04:18:10;;;;;;;38.88;28.77;;;;;;;7.07;74.73;97682.19;4260711;33;20137;-92
2024/01/18 04:20:42;;;;;;;46.28;32.90;;;;;;;7.25;74.20;97666.53;4261001;33;20156;-92
2024/01/18 04:23:12;;;;;;;42.97;32.17;;;;;;;7.18;74.54;97674.16;4261017;33;20183;-91
2024/01/18 04:25:41;;;;;;;35.65;28.00;;;;;;;7.41;73.77;97663.34;4260480;33;20148;-92
2024/01/18 04:28:10;;;;;;;37.90;27.17;;;;;;;7.39;73.64;97664.28;4260641;33;20537;-91
2024/01/18 04:30:42;;;;;;;40.80;29.42;;;;;;;7.15;74.39;97656.81;4260656;33;20176;-91
2024/01/18 04:33:19;;;;;;;39.75;29.10;;;;;;;7.04;74.80;97669.28;4260662;33;20172;-92
2024/01/18 04:35:49;;;;;;;36.35;27.87;;;;;;;7.43;73.69;97659.56;4260696;33;20446;-92
2024/01/18 04:38:18;;;;;;;38.45;28.50;;;;;;;7.44;73.53;97653.31;4261029;33;20183;-91
2024/01/18 04:40:47;;;;;;;42.25;29.87;;;;;;;7.38;73.83;97656.53;4260851;33;20157;-92
2024/01/18 04:43:16;;;;;;;41.15;30.27;;;;;;;7.02;75.14;97639.66;4260706;33;20411;-92
2024/01/18 04:45:45;;;;;;;47.38;33.58;;;;;;;6.96;75.58;97646.28;4260679;33;20156;-91
2024/01/18 04:48:19;;;;;;;40.78;29.92;;;;;;;7.18;74.88;97647.00;4260536;33;20502;-92
2024/01/18 04:50:49;;;;;;;37.22;29.10;;;;;;;7.21;74.58;97647.53;4260812;33;20148;-91
2024/01/18 04:53:19;;;;;;;45.25;30.52;;;;;;;7.03;75.24;97644.78;4261088;33;20184;-91
2024/01/18 04:55:49;;;;;;;36.75;29.25;;;;;;;7.18;74.89;97644.34;4260906;33;20425;-91
2024/01/18 04:58:18;;;;;;;45.25;30.12;;;;;;;7.09;75.03;97643.41;4268089;33;20179;-92
2024/01/18 05:00:47;;;;;;;40.20;27.77;;;;;;;7.50;73.66;97642.22;4274734;33;20184;-91
2024/01/18 05:03:21;;;;;;;34.08;26.75;;;;;;;7.45;73.50;97649.72;4263547;33;20160;-92
2024/01/18 05:05:51;;;;;;;34.78;25.95;;;;;;;7.46;73.44;97647.91;4260677;33;20188;-92
2024/01/18 05:08:20;;;;;;;39.33;27.15;;;;;;;7.52;73.12;97653.47;4260999;33;20144;-92
2024/01/18 05:10:50;;;;;;;37.70;27.85;;;;;;;7.51;73.18;97648.31;4260391;33;20165;-92
2024/01/18 05:13:20;;;;;;;35.75;27.35;;;;;;;7.47;73.06;97645.13;4260634;33;20172;-92
2024/01/18 05:15:49;;;;;;;32.45;25.40;;;;;;;7.52;72.98;97645.56;4260530;33;20164;-92
2024/01/18 05:18:25;;;;;;;38.97;27.15;;;;;;;7.36;73.29;97642.66;4260534;33;20164;-92
2024/01/18 05:20:54;;;;;;;35.85;25.45;;;;;;;7.22;73.61;97638.66;4261011;33;20136;-92
2024/01/18 05:23:30;;;;;;;41.08;25.35;;;;;;;7.37;73.17;97650.44;4260965;33;20179;-92
2024/01/18 05:25:59;;;;;;;35.83;26.35;;;;;;;7.43;72.90;97646.37;4260354;33;20199;-92
2024/01/18 05:28:35;;;;;;;34.47;26.70;;;;;;;7.19;73.39;97646.84;4260634;33;20168;-92
2024/01/18 05:31:05;;;;;;;35.45;25.85;;;;;;;7.30;73.21;97645.87;4260746;33;20141;-92
2024/01/18 05:33:40;;;;;;;39.20;28.02;;;;;;;7.21;73.47;97638.81;4260544;33;20546;-92
2024/01/18 05:36:10;;;;;;;39.42;27.87;;;;;;;7.50;72.59;97646.66;4259708;33;20569;-92
2024/01/18 05:38:39;;;;;;;46.65;28.50;;;;;;;7.22;73.53;97646.56;4260490;33;20153;-92
2024/01/18 05:41:10;;;;;;;36.97;27.77;;;;;;;7.39;72.95;97642.38;4261024;33;20141;-92
2024/01/18 05:43:41;;;;;;;34.67;26.27;;;;;;;7.34;73.17;97639.34;4260436;33;20160;-93
2024/01/18 05:46:17;;;;;;;35.97;27.08;;;;;;;7.47;72.56;97645.13;4260282;33;20176;-92
2024/01/18 05:48:51;;;;;;;;;;;;;;;7.47;72.49;97642.50;4260586;33;20157;-92
2024/01/18 05:51:21;;;;;;;38.95;27.90;;;;;;;7.63;71.81;97642.72;4260593;33;20048;-92
2024/01/18 05:53:50;;;;;;;36.28;26.50;;;;;;;7.61;71.69;97643.88;4260624;33;20140;-92
2024/01/18 05:56:19;;;;;;;42.80;26.87;;;;;;;7.39;72.56;97637.94;4260794;33;20139;-92
2024/01/18 05:58:48;;;;;;;32.28;24.55;;;;;;;7.33;72.79;97643.78;4271082;33;20156;-92
2024/01/18 06:01:17;;;;;;;34.25;25.92;;;;;;;7.46;72.44;97643.47;4274439;33;20152;-92
2024/01/18 06:03:47;;;;;;;33.08;23.60;;;;;;;7.48;72.40;97643.31;4261640;33;20167;-93
2024/01/18 06:06:17;;;;;;;39.72;27.73;;;;;;;7.38;72.51;97644.19;4260190;33;20179;-92
2024/01/18 06:08:47;;;;;;;39.58;29.05;;;;;;;7.59;71.73;97645.81;4260427;33;20511;-92
2024/01/18 06:11:18;;;;;;;38.33;29.92;;;;;;;7.34;72.57;97634.91;4260737;33;20132;-92
2024/01/18 06:13:48;;;;;;;37.58;30.48;;;;;;;7.39;72.60;97642.38;4260604;33;20550;-92
2024/01/18 06:16:18;;;;;;;37.08;27.60;;;;;;;7.38;72.58;97638.91;4259887;33;20176;-92
2024/01/18 06:18:47;;;;;;;39.33;26.80;;;;;;;7.46;72.46;97650.56;4259376;33;20156;-92
2024/01/18 06:21:17;;;;;;;34.10;27.00;;;;;;;7.21;72.67;97646.72;4247164;33;20144;-92
2024/01/18 06:26:23;;;;;;;39.42;28.77;;;;;;;7.77;78.31;97648.53;4260683;33;20172;-92
2024/01/18 06:28:53;;;;;;;53.30;26.15;;;;;;;8.12;75.85;97645.22;4260472;33;20418;-92
2024/01/18 06:31:26;;;;;;;34.17;25.85;;;;;;;8.29;74.20;97648.88;4260200;33;20148;-92
2024/01/18 06:33:56;;;;;;;31.33;24.45;;;;;;;8.49;72.51;97657.53;4260156;33;20513;-92
2024/01/18 06:36:26;;;;;;;32.25;25.27;;;;;;;8.95;69.64;97655.69;4260038;33;20427;-92
2024/01/18 06:38:56;;;;;;;39.05;26.40;;;;;;;9.04;68.25;97663.56;4259916;33;20172;-92
2024/01/18 06:41:26;;;;;;;28.87;23.40;;;;;;;8.92;67.67;97659.47;4260296;33;20148;-92
2024/01/18 06:44:00;;;;;;;33.78;25.50;;;;;;;8.89;67.11;97656.31;4259802;33;20160;-93
2024/01/18 06:46:31;;;;;;;33.63;25.20;;;;;;;8.75;66.90;97653.22;4260071;33;20442;-92
2024/01/18 06:49:03;;;;;;;26.55;22.48;;;;;;;8.50;67.10;97664.47;4259852;33;20168;-93
2024/01/18 06:51:34;;;;;;;27.15;23.40;;;;;;;8.64;66.67;97657.88;4259721;33;20156;-92
2024/01/18 06:54:03;;;;;;;27.77;24.52;;;;;;;8.71;66.09;97657.12;4260048;33;20160;-91
2024/01/18 06:56:32;;;;;;;29.15;23.92;;;;;;;8.64;66.14;97661.34;4259977;33;20168;-92
2024/01/18 06:59:02;;;;;;;30.88;25.25;;;;;;;8.22;67.62;97655.72;4272193;33;20135;-93
2024/01/18 07:01:33;;;;;;;40.50;28.35;;;;;;;8.33;67.17;97652.87;4274439;33;20441;-93
2024/01/18 07:04:03;;;;;;;40.25;27.70;;;;;;;8.31;67.19;97657.47;4261500;33;20157;-92
2024/01/18 07:06:34;;;;;;;35.85;26.12;;;;;;;7.73;69.00;97657.72;4259954;33;20161;-92
2024/01/18 07:09:07;;;;;;;42.45;28.58;;;;;;;7.76;68.98;97649.50;4259965;33;20150;-92
2024/01/18 07:11:38;;;;;;;38.05;28.33;;;;;;;7.64;69.51;97651.47;4259930;33;20187;-92
2024/01/18 07:14:08;;;;;;;33.53;27.67;;;;;;;7.69;69.41;97651.06;4260322;33;20157;-92
2024/01/18 07:16:37;;;;;;;31.23;24.17;;;;;;;7.69;69.39;97657.16;4259811;33;20148;-92
2024/01/18 07:19:06;;;;;;;31.12;25.90;;;;;;;7.74;69.21;97646.19;4260079;33;20164;-93
2024/01/18 07:21:38;;;;;;;29.98;24.92;;;;;;;7.63;69.51;97655.91;4259663;33;20157;-92
2024/01/18 07:24:08;;;;;;;33.78;27.77;;;;;;;7.69;69.34;97648.44;4263512;33;20169;-92
2024/01/18 07:26:38;;;;;;;44.08;32.20;;;;;;;7.58;69.75;97649.41;4259996;33;20164;-92
2024/01/18 07:29:07;;;;;;;39.03;28.35;;;;;;;7.77;69.29;97656.44;4247530;33;20522;-92
2024/01/18 07:31:37;;;;;;;39.28;27.87;;;;;;;7.50;70.58;97655.41;4259835;33;20470;-92
2024/01/18 07:34:11;;;;;;;36.40;29.25;;;;;;;7.59;70.41;97659.81;4259680;33;20796;-92
2024/01/18 07:36:43;;;;;;;41.20;29.10;;;;;;;7.64;70.22;97662.00;4259532;33;20499;-93
2024/01/18 07:39:12;;;;;;;38.70;28.65;;;;;;;7.64;70.09;97673.41;4259939;33;20172;-93
2024/01/18 07:41:41;;;;;;;43.17;30.27;;;;;;;7.58;70.16;97671.31;4259865;33;20164;-93
2024/01/18 07:44:13;;;;;;;39.25;28.02;;;;;;;7.58;70.25;97670.50;4259910;33;20160;-93
2024/01/18 07:46:42;;;;;;;31.90;25.13;;;;;;;7.82;69.56;97675.28;4259358;33;20164;-92
2024/01/18 07:49:14;;;;;;;53.72;32.97;;;;;;;7.95;69.19;97685.53;4246657;33;20451;-92
2024/01/18 07:51:45;;;;;;;45.97;30.85;;;;;;;7.36;71.93;97680.41;4259451;33;20173;-92
2024/01/18 07:54:17;;;;;;;39.15;28.25;;;;;;;7.67;71.15;97684.63;4259734;33;20180;-92
2024/01/18 07:56:47;;;;;;;43.17;30.40;;;;;;;7.69;71.19;97693.25;4259752;33;20164;-92
2024/01/18 07:59:16;;;;;;;52.38;30.70;;;;;;;7.51;71.93;97687.84;4272791;33;20202;-92
2024/01/18 08:01:45;;;;;;;49.00;29.75;;;;;;;7.48;72.44;97686.31;4275905;33;20163;-92
2024/01/18 08:04:20;;;;;;;39.58;27.48;;;;;;;7.57;72.03;97692.56;4262697;33;20160;-92
2024/01/18 08:06:56;;;;;;;36.75;26.48;;;;;;;7.69;71.62;97701.16;4261327;33;20447;-93
2024/01/18 08:09:29;;;;;;;40.08;27.13;;;;;;;7.70;71.48;97686.97;4261304;33;20156;-92
2024/01/18 08:11:58;;;;;;;36.88;25.75;;;;;;;7.59;71.47;97687.97;4261530;33;20149;-92
2024/01/18 08:14:27;;;;;;;37.92;29.37;;;;;;;7.69;71.38;97687.97;4261659;33;20164;-92
2024/01/18 08:17:00;;;;;;;44.55;30.37;;;;;;;7.64;71.49;97691.87;4261258;33;20164;-92
2024/01/18 08:19:29;;;;;;;37.03;28.05;;;;;;;7.58;71.70;97689.78;4261233;33;20140;-92
2024/01/18 08:22:00;;;;;;;37.53;27.25;;;;;;;7.67;71.84;97688.09;4261569;33;20164;-92
2024/01/18 08:24:30;;;;;;;35.22;27.20;;;;;;;7.77;71.51;97685.44;4261238;33;20176;-92
2024/01/18 08:26:59;;;;;;;41.25;29.15;;;;;;;7.88;71.13;97683.47;4261402;33;20156;-93
2024/01/18 08:29:29;;;;;;;43.60;29.42;;;;;;;8.04;71.11;97690.78;4262065;33;20172;-92
2024/01/18 08:31:58;;;;;;;39.03;28.90;;;;;;;7.99;71.25;97686.91;4261574;33;20149;-92
2024/01/18 08:34:35;;;;;;;36.60;29.05;;;;;;;7.95;71.53;97688.97;4261799;33;20157;-92
2024/01/18 08:37:06;;;;;;;38.15;28.25;;;;;;;7.95;71.76;97686.34;4261787;33;20164;-92
2024/01/18 08:39:36;;;;;;;45.08;29.85;;;;;;;8.02;71.63;97684.81;4261456;33;20160;-92
2024/01/18 08:42:07;;;;;;;37.92;28.75;;;;;;;8.13;71.41;97692.53;4261836;33;20530;-92
2024/01/18 08:44:36;;;;;;;57.38;31.17;;;;;;;8.12;71.39;97682.97;4261672;33;20129;-92
2024/01/18 08:47:05;;;;;;;44.03;29.92;;;;;;;7.93;72.25;97693.59;4262285;33;20172;-92
2024/01/18 08:49:35;;;;;;;42.05;32.15;;;;;;;8.13;71.78;97694.34;4261718;33;20148;-92
2024/01/18 08:52:08;;;;;;;37.00;27.30;;;;;;;8.26;71.57;97701.94;4261945;33;20153;-92
2024/01/18 08:54:38;;;;;;;42.90;32.92;;;;;;;8.37;71.41;97694.69;4262222;33;20141;-92
2024/01/18 08:57:07;;;;;;;53.33;37.30;;;;;;;8.36;71.79;97697.44;4261861;33;20168;-93
2024/01/18 08:59:37;;;;;;;42.88;31.30;;;;;;;8.26;72.26;97710.66;4262322;33;20561;-92
2024/01/18 09:02:06;;;;;;;40.72;31.98;;;;;;;8.41;71.73;97712.88;4262190;33;20168;-92
2024/01/18 09:04:48;;;;;;;55.95;46.00;;;;;;;8.53;71.38;97722.25;4260927;33;20426;-92
2024/01/18 09:07:19;;;;;;;64.35;44.10;;;;;;;8.41;71.80;97723.44;4260863;33;20141;-92
2024/01/18 09:09:49;;;;;;;63.13;47.13;;;;;;;8.39;71.58;97715.63;4260975;33;20158;-92
2024/01/18 09:12:20;;;;;;;66.03;55.42;;;;;;;8.31;71.97;97723.41;4261069;33;20510;-93
2024/01/18 09:14:49;;;;;;;67.47;48.25;;;;;;;8.47;71.59;97722.81;4261193;33;20136;-92
2024/01/18 09:17:18;;;;;;;60.25;44.58;;;;;;;8.53;71.61;97716.97;4261562;33;20172;-92
2024/01/18 09:19:56;;;;;;;54.85;37.35;;;;;;;8.52;72.12;97716.16;4260959;33;20446;-92
2024/01/18 09:22:27;;;;;;;46.10;35.63;;;;;;;8.54;72.31;97711.53;4260860;33;20530;-92
2024/01/18 09:24:56;;;;;;;58.22;40.45;;;;;;;8.47;73.39;97718.38;4261095;33;20171;-92
2024/01/18 09:27:26;;;;;;;54.60;38.80;;;;;;;8.29;74.31;97707.75;4263313;33;20179;-92
2024/01/18 09:29:55;;;;;;;51.30;38.05;;;;;;;8.42;74.22;97715.34;4275005;33;20168;-92
2024/01/18 09:32:27;;;;;;;52.88;38.28;;;;;;;8.59;73.87;97717.22;4274967;33;20476;-93
2024/01/18 09:34:59;;;;;;;44.80;34.55;;;;;;;8.75;73.44;97723.66;4260660;33;20164;-92
2024/01/18 09:37:31;;;;;;;46.03;34.42;;;;;;;8.78;73.43;97716.28;4260422;33;20183;-92
2024/01/18 09:40:00;;;;;;;47.55;32.45;;;;;;;8.69;74.28;97718.97;4260815;33;20159;-92
2024/01/18 09:42:37;;;;;;;54.92;38.63;;;;;;;8.86;73.70;97720.81;4261133;33;20176;-92
2024/01/18 09:45:10;;;;;;;67.85;43.17;;;;;;;8.66;74.59;97704.25;4260715;33;20160;-92
2024/01/18 09:47:45;;;;;;;59.00;41.28;;;;;;;8.85;73.65;97721.78;4260704;33;20179;-92
2024/01/18 09:50:15;;;;;;;73.05;47.53;;;;;;;8.96;73.26;97708.38;4261187;33;20195;-92
2024/01/18 09:52:46;;;;;;;140.50;56.03;;;;;;;8.92;73.37;97699.09;4260818;33;20436;-92
2024/01/18 09:55:16;;;;;;;55.28;43.63;;;;;;;9.00;73.04;97704.47;4260417;33;20159;-92
2024/01/18 09:57:49;;;;;;;69.70;50.58;;;;;;;9.05;72.63;97704.84;4260718;33;20164;-93
2024/01/18 10:00:26;;;;;;;95.18;60.55;;;;;;;9.02;72.46;97710.41;4260996;33;20176;-93
2024/01/18 10:03:02;;;;;;;86.30;59.30;;;;;;;9.07;72.11;97704.69;4260517;33;20160;-92
2024/01/18 10:05:31;;;;;;;98.60;63.47;;;;;;;8.95;72.53;97706.72;4259573;33;20140;-93
2024/01/18 10:08:03;;;;;;;101.00;63.75;;;;;;;8.98;72.40;97695.84;4246546;33;20177;-93
2024/01/18 10:10:32;;;;;;;130.17;79.57;;;;;;;9.03;72.27;97693.59;4246599;33;20145;-93
2024/01/18 10:13:03;;;;;;;111.00;69.00;;;;;;;8.97;72.43;97690.72;4246817;33;20251;-93
2024/01/18 10:15:34;;;;;;;113.30;66.47;;;;;;;8.93;72.94;97695.47;4246829;33;20493;-92
2024/01/18 10:18:05;;;;;;;204.75;102.28;;;;;;;8.92;72.88;97688.53;4249435;33;20139;-92
2024/01/18 10:20:45;;;;;;;108.15;68.70;;;;;;;8.93;72.96;97682.25;4260498;33;20156;-93
2024/01/18 10:23:16;;;;;;;115.30;76.70;;;;;;;9.10;72.25;97686.72;4260373;33;20176;-93
2024/01/18 10:25:46;;;;;;;120.70;76.28;;;;;;;9.03;72.60;97687.50;4260135;33;20195;-92
2024/01/18 10:28:15;;;;;;;117.68;80.70;;;;;;;9.04;72.43;97684.69;4260401;33;20517;-92
2024/01/18 10:30:45;;;;;;;123.60;83.68;;;;;;;9.17;72.08;97689.59;4260644;33;20155;-92
2024/01/18 10:33:15;;;;;;;112.70;75.47;;;;;;;9.04;72.38;97691.78;4260458;33;20193;-93
2024/01/18 10:35:45;;;;;;;103.57;72.07;;;;;;;9.19;71.75;97686.81;4260173;33;20460;-92
2024/01/18 10:38:16;;;;;;;95.97;67.12;;;;;;;9.15;71.87;97680.19;4260364;33;20133;-93
2024/01/18 10:40:50;;;;;;;105.78;69.53;;;;;;;9.17;71.80;97686.94;4260046;33;20530;-93
2024/01/18 10:43:21;;;;;;;83.10;64.50;;;;;;;9.06;72.04;97685.34;4260131;33;20175;-92
2024/01/18 10:45:51;;;;;;;172.98;76.97;;;;;;;9.07;72.06;97679.13;4259779;33;20795;-93
2024/01/18 10:48:22;;;;;;;77.85;55.40;;;;;;;9.13;71.74;97677.66;4260022;33;20164;-93
2024/01/18 10:50:58;;;;;;;79.45;53.15;;;;;;;9.32;71.00;97669.56;4260087;33;20216;-93
2024/01/18 10:53:32;;;;;;;72.68;48.95;;;;;;;9.16;71.62;97672.09;4260489;33;20168;-92
2024/01/18 10:56:13;;;;;;;66.20;46.97;;;;;;;9.29;71.37;97667.22;4259626;33;20403;-93
2024/01/18 10:58:48;;;;;;;66.05;43.50;;;;;;;9.25;71.34;97657.12;4269875;33;20148;-93
2024/01/18 11:01:18;;;;;;;56.08;37.65;;;;;;;9.48;70.81;97665.41;4274468;33;20176;-93
2024/01/18 11:03:48;;;;;;;51.78;36.47;;;;;;;9.34;71.48;97666.78;4267704;33;20515;-92
2024/01/18 11:06:18;;;;;;;54.00;37.78;;;;;;;9.35;71.67;97655.25;4259580;33;20137;-93
2024/01/18 11:08:50;;;;;;;46.95;34.80;;;;;;;9.38;71.91;97660.19;4259877;33;20132;-93
2024/01/18 11:11:20;;;;;;;46.67;32.22;;;;;;;9.37;72.38;97655.91;4260338;33;20176;-93
2024/01/18 11:13:49;;;;;;;50.17;34.33;;;;;;;9.35;72.74;97661.34;4259867;33;20156;-93
2024/01/18 11:16:18;;;;;;;48.90;35.75;;;;;;;9.53;72.44;97656.00;4259758;33;20172;-93
2024/01/18 11:18:50;;;;;;;47.00;34.75;;;;;;;9.46;73.26;97652.31;4259940;33;20160;-93
2024/01/18 11:21:27;;;;;;;47.42;33.42;;;;;;;9.56;73.43;97652.25;4259953;33;20175;-93
2024/01/18 11:24:06;;;;;;;46.47;32.10;;;;;;;9.68;73.37;97650.19;4259983;33;20187;-93
2024/01/18 11:26:35;;;;;;;38.05;29.65;;;;;;;9.97;72.67;97649.84;4259557;33;20168;-92
2024/01/18 11:29:18;;;;;;;33.75;28.02;;;;;;;9.98;72.45;97652.34;4272116;33;20179;-93
2024/01/18 11:31:49;;;;;;;36.88;26.98;;;;;;;9.80;73.38;97647.09;4273594;33;20144;-93
2024/01/18 11:34:31;;;;;;;40.30;25.52;;;;;;;10.01;72.70;97659.94;4265436;33;20172;-93
2024/01/18 11:37:11;;;;;;;30.23;24.30;;;;;;;9.94;72.94;97658.09;4261517;33;20529;-93
2024/01/18 11:40:00;;;;;;;31.15;24.40;;;;;;;9.80;73.62;97633.06;4261520;33;20130;-93
2024/01/18 11:42:30;;;;;;;34.83;22.92;;;;;;;10.09;72.82;97640.63;4261513;33;20149;-93
2024/01/18 11:45:01;;;;;;;36.28;23.70;;;;;;;9.94;72.99;97643.06;4261445;33;20207;-93
2024/01/18 11:47:32;;;;;;;27.42;19.90;;;;;;;9.94;73.04;97642.22;4261822;33;20196;-93